createdAt,value
2019-02-26T00:02:21.331Z,4.67
2019-02-26T00:04:54.079Z,6.80
2019-02-26T00:07:27.461Z,4.80
2019-02-26T00:09:59.458Z,6.73
2019-02-26T00:12:28.693Z,5.07
2019-02-26T00:15:02.497Z,5.00
2019-02-26T00:17:33.545Z,5.67
2019-02-26T00:20:05.585Z,5.63
2019-02-26T00:22:36.801Z,7.20
2019-02-26T00:25:10.240Z,5.93
2019-02-26T00:27:39.652Z,6.87
2019-02-26T00:30:13.594Z,6.33
2019-02-26T00:32:44.003Z,4.77
2019-02-26T00:35:15.832Z,5.17
2019-02-26T00:37:47.057Z,4.83
2019-02-26T00:40:20.184Z,4.97
2019-02-26T00:42:52.218Z,5.33
2019-02-26T00:45:24.672Z,4.30
2019-02-26T00:47:51.183Z,5.63
2019-02-26T00:50:21.715Z,5.53
2019-02-26T00:52:57.029Z,7.20
2019-02-26T00:55:29.328Z,5.40
2019-02-26T00:58:00.655Z,5.03
2019-02-26T01:00:30.883Z,4.90
2019-02-26T01:03:03.428Z,5.07
2019-02-26T01:05:35.849Z,6.23
2019-02-26T01:08:10.543Z,5.77
2019-02-26T01:10:39.801Z,3.80
2019-02-26T01:13:10.352Z,5.97
2019-02-26T01:15:39.810Z,4.93
2019-02-26T01:18:09.332Z,3.77
2019-02-26T01:20:38.275Z,5.27
2019-02-26T01:23:09.103Z,4.13
2019-02-26T01:25:39.983Z,4.03
2019-02-26T01:28:09.475Z,4.77
2019-02-26T01:30:40.724Z,5.97
2019-02-26T01:33:12.836Z,6.57
2019-02-26T01:35:42.825Z,5.80
2019-02-26T01:38:14.392Z,5.23
2019-02-26T01:40:46.535Z,5.27
2019-02-26T01:43:17.996Z,5.27
2019-02-26T01:45:48.627Z,5.67
2019-02-26T01:48:19.074Z,4.73
2019-02-26T01:50:48.110Z,5.83
2019-02-26T01:53:19.806Z,9.30
2019-02-26T01:55:50.956Z,4.50
2019-02-26T01:58:20.856Z,5.20
2019-02-26T02:00:49.813Z,5.10
2019-02-26T02:03:20.821Z,5.63
2019-02-26T02:05:53.020Z,7.80
2019-02-26T02:08:24.978Z,5.80
2019-02-26T02:10:58.846Z,6.57
2019-02-26T02:13:28.768Z,6.67
2019-02-26T02:16:00.405Z,4.37
2019-02-26T02:18:32.395Z,5.90
2019-02-26T02:21:02.610Z,4.13
2019-02-26T02:23:32.723Z,4.30
2019-02-26T02:26:04.468Z,3.20
2019-02-26T02:28:35.631Z,3.27
2019-02-26T02:31:06.058Z,3.20
2019-02-26T02:33:37.021Z,3.03
2019-02-26T02:36:11.523Z,3.37
2019-02-26T02:38:39.409Z,3.00
2019-02-26T02:41:08.288Z,3.67
2019-02-26T02:43:39.246Z,3.33
2019-02-26T02:46:08.099Z,3.90
2019-02-26T02:48:39.411Z,3.77
2019-02-26T02:51:13.175Z,3.73
2019-02-26T02:53:40.218Z,5.53
2019-02-26T02:56:12.889Z,6.87
2019-02-26T02:58:46.421Z,5.07
2019-02-26T03:01:16.628Z,4.70
2019-02-26T03:03:50.581Z,5.27
2019-02-26T03:06:20.452Z,4.70
2019-02-26T03:08:53.366Z,4.80
2019-02-26T03:11:22.252Z,3.47
2019-02-26T03:13:53.726Z,5.93
2019-02-26T03:16:23.962Z,5.20
2019-02-26T03:18:54.711Z,5.53
2019-02-26T03:21:27.235Z,4.30
2019-02-26T03:23:58.327Z,5.17
2019-02-26T03:26:28.694Z,3.23
2019-02-26T03:28:58.342Z,4.60
2019-02-26T03:31:33.758Z,5.23
2019-02-26T03:34:08.467Z,5.20
2019-02-26T03:36:34.291Z,5.70
2019-02-26T03:39:06.000Z,5.90
2019-02-26T03:41:37.388Z,5.13
2019-02-26T03:44:08.766Z,4.13
2019-02-26T03:46:40.658Z,4.50
2019-02-26T03:49:11.817Z,3.90
2019-02-26T03:51:41.813Z,5.30
2019-02-26T03:54:11.856Z,5.43
2019-02-26T03:56:41.276Z,5.83
2019-02-26T03:59:11.802Z,3.20
2019-02-26T04:01:40.321Z,4.67
2019-02-26T04:04:10.606Z,5.73
2019-02-26T04:06:41.995Z,4.97
2019-02-26T04:09:15.956Z,3.10
2019-02-26T04:11:47.679Z,4.67
2019-02-26T04:14:19.722Z,4.03
2019-02-26T04:16:51.162Z,3.07
2019-02-26T04:19:26.142Z,3.70
2019-02-26T04:22:34.265Z,4.47
2019-02-26T04:25:10.754Z,4.40
2019-02-26T04:28:32.988Z,4.80
2019-02-26T04:32:28.072Z,4.43
2019-02-26T04:35:37.411Z,6.67
2019-02-26T04:39:10.864Z,5.17
2019-02-26T04:42:09.417Z,5.50
2019-02-26T04:45:48.370Z,3.73
2019-02-26T04:48:20.197Z,3.40
2019-02-26T04:50:51.966Z,3.03
2019-02-26T04:53:23.237Z,4.50
2019-02-26T04:55:53.739Z,5.50
2019-02-26T04:58:24.261Z,4.60
2019-02-26T05:00:54.747Z,4.10
2019-02-26T05:03:25.745Z,3.13
2019-02-26T05:05:57.237Z,3.77
2019-02-26T05:08:25.408Z,5.77
2019-02-26T05:10:57.292Z,2.80
2019-02-26T05:13:34.603Z,3.20
2019-02-26T05:16:05.705Z,5.67
2019-02-26T05:18:34.599Z,3.40
2019-02-26T05:21:05.233Z,4.67
2019-02-26T05:23:36.818Z,5.37
2019-02-26T05:26:08.352Z,3.80
2019-02-26T05:28:40.838Z,5.10
2019-02-26T05:31:12.490Z,4.87
2019-02-26T05:33:42.909Z,4.97
2019-02-26T05:36:14.400Z,4.43
2019-02-26T05:38:45.530Z,5.00
2019-02-26T05:41:16.280Z,3.50
2019-02-26T05:43:52.111Z,6.47
2019-02-26T05:46:19.697Z,6.97
2019-02-26T05:48:51.170Z,5.33
2019-02-26T05:51:20.671Z,4.73
2019-02-26T05:53:51.784Z,5.47
2019-02-26T05:56:23.018Z,6.33
2019-02-26T05:58:52.702Z,4.93
2019-02-26T06:01:24.953Z,5.07
2019-02-26T06:03:55.964Z,5.03
2019-02-26T06:06:24.567Z,5.83
2019-02-26T06:08:57.444Z,9.27
2019-02-26T06:11:30.829Z,7.17
2019-02-26T06:14:06.422Z,16.67
2019-02-26T06:16:31.542Z,5.73
2019-02-26T06:19:00.651Z,9.87
2019-02-26T06:21:30.591Z,5.93
2019-02-26T06:24:00.039Z,5.67
2019-02-26T06:26:33.364Z,7.40
2019-02-26T06:29:03.649Z,3.50
2019-02-26T06:31:34.420Z,3.17
2019-02-26T06:34:08.548Z,4.30
2019-02-26T06:36:39.028Z,5.97
2019-02-26T06:39:09.773Z,4.23
2019-02-26T06:41:41.799Z,5.43
2019-02-26T06:44:14.094Z,6.83
2019-02-26T06:46:45.708Z,8.50
2019-02-26T06:49:17.878Z,13.97
2019-02-26T06:51:49.810Z,9.77
2019-02-26T06:54:22.165Z,11.10
2019-02-26T06:56:52.831Z,10.43
2019-02-26T06:59:32.493Z,12.97
2019-02-26T07:02:02.060Z,7.77
2019-02-26T07:04:32.687Z,8.60
2019-02-26T07:07:04.414Z,7.47
2019-02-26T07:09:36.762Z,9.07
2019-02-26T07:12:06.506Z,8.33
2019-02-26T07:14:35.848Z,8.33
2019-02-26T07:17:05.138Z,7.93
2019-02-26T07:19:35.806Z,5.77
2019-02-26T07:22:08.300Z,8.57
2019-02-26T07:24:41.225Z,7.50
2019-02-26T07:27:12.111Z,12.80
2019-02-26T07:29:45.599Z,11.13
2019-02-26T07:32:17.283Z,13.90
2019-02-26T07:34:48.025Z,19.57
2019-02-26T07:37:18.888Z,11.13
2019-02-26T07:39:51.555Z,7.90
2019-02-26T07:42:21.945Z,7.70
2019-02-26T07:44:51.275Z,6.40
2019-02-26T07:47:22.056Z,7.00
2019-02-26T07:49:52.157Z,6.40
2019-02-26T07:52:24.199Z,8.37
2019-02-26T07:54:54.626Z,9.80
2019-02-26T07:57:25.887Z,10.40
2019-02-26T07:59:56.202Z,7.20
2019-02-26T08:02:30.151Z,10.87
2019-02-26T08:05:00.748Z,6.90
2019-02-26T08:07:31.111Z,9.90
2019-02-26T08:10:02.686Z,9.80
2019-02-26T08:12:35.579Z,10.67
2019-02-26T08:15:10.354Z,11.63
2019-02-26T08:17:39.626Z,12.53
2019-02-26T08:20:14.760Z,11.17
2019-02-26T08:22:45.599Z,7.57
2019-02-26T08:25:16.297Z,7.77
2019-02-26T08:27:46.786Z,9.10
2019-02-26T08:30:20.803Z,9.17
2019-02-26T08:32:53.460Z,6.43
2019-02-26T08:35:20.783Z,6.93
2019-02-26T08:37:50.203Z,10.03
2019-02-26T08:40:21.047Z,9.23
2019-02-26T08:42:51.779Z,8.57
2019-02-26T08:45:25.102Z,12.10
2019-02-26T08:47:54.932Z,13.10
2019-02-26T08:50:28.562Z,9.67
2019-02-26T08:52:58.549Z,7.83
2019-02-26T08:55:28.591Z,7.47
2019-02-26T08:57:58.979Z,6.13
2019-02-26T09:00:29.018Z,10.93
2019-02-26T09:02:58.373Z,8.40
2019-02-26T09:05:31.557Z,12.87
2019-02-26T09:08:00.875Z,11.13
2019-02-26T09:10:30.077Z,10.40
2019-02-26T09:13:01.652Z,7.53
2019-02-26T09:15:33.565Z,8.57
2019-02-26T09:18:03.281Z,10.13
2019-02-26T09:20:33.232Z,11.83
2019-02-26T09:23:03.544Z,7.77
2019-02-26T09:25:33.967Z,8.90
2019-02-26T09:28:04.084Z,6.93
2019-02-26T09:30:35.693Z,7.77
2019-02-26T09:33:09.044Z,8.67
2019-02-26T09:35:38.478Z,9.60
2019-02-26T09:38:09.371Z,10.27
2019-02-26T09:40:39.582Z,10.07
2019-02-26T09:43:12.312Z,7.87
2019-02-26T09:45:43.568Z,7.97
2019-02-26T09:48:16.960Z,8.43
2019-02-26T09:50:46.426Z,7.90
2019-02-26T09:53:17.441Z,8.77
2019-02-26T09:55:48.856Z,8.17
2019-02-26T09:58:20.369Z,6.83
2019-02-26T10:00:51.146Z,9.90
2019-02-26T10:03:21.316Z,9.13
2019-02-26T10:05:55.108Z,7.23
2019-02-26T10:08:27.220Z,7.57
2019-02-26T10:11:00.330Z,8.37
2019-02-26T10:13:30.799Z,9.73
2019-02-26T10:16:02.008Z,7.57
2019-02-26T10:18:33.000Z,11.00
2019-02-26T10:21:03.114Z,10.73
2019-02-26T10:23:33.581Z,11.07
2019-02-26T10:26:05.212Z,7.07
2019-02-26T10:28:39.461Z,9.83
2019-02-26T10:31:09.748Z,7.50
2019-02-26T10:33:41.134Z,9.80
2019-02-26T10:36:11.218Z,10.10
2019-02-26T10:38:50.932Z,10.17
2019-02-26T10:41:21.198Z,9.03
2019-02-26T10:43:51.061Z,8.63
2019-02-26T10:46:22.375Z,13.03
2019-02-26T10:48:52.905Z,9.80
2019-02-26T10:51:27.075Z,10.97
2019-02-26T10:53:57.511Z,9.57
2019-02-26T10:56:30.556Z,10.00
2019-02-26T10:59:05.386Z,8.83
2019-02-26T11:01:34.083Z,10.97
2019-02-26T11:04:05.655Z,9.50
2019-02-26T11:06:38.364Z,9.77
2019-02-26T11:09:29.340Z,10.77
2019-02-26T11:12:00.793Z,13.33
2019-02-26T11:14:35.639Z,13.30
2019-02-26T11:17:05.215Z,9.93
2019-02-26T11:19:36.692Z,12.00
2019-02-26T11:22:07.219Z,8.07
2019-02-26T11:24:37.392Z,14.13
2019-02-26T11:27:06.886Z,11.97
2019-02-26T11:29:38.760Z,10.73
2019-02-26T11:32:08.269Z,14.37
2019-02-26T11:34:41.554Z,9.87
2019-02-26T11:37:10.931Z,10.77
2019-02-26T11:39:40.858Z,9.73
2019-02-26T11:42:12.402Z,11.13
2019-02-26T11:44:42.497Z,8.60
2019-02-26T11:47:13.729Z,8.57
2019-02-26T11:49:44.350Z,8.73
2019-02-26T11:52:19.590Z,7.20
2019-02-26T11:54:48.476Z,11.30
2019-02-26T11:57:21.593Z,8.67
2019-02-26T11:59:51.942Z,10.17
2019-02-26T12:02:26.273Z,10.37
2019-02-26T12:04:54.957Z,10.13
2019-02-26T12:07:25.586Z,11.37
2019-02-26T12:10:04.695Z,9.53
2019-02-26T12:12:33.686Z,9.33
2019-02-26T12:15:06.654Z,8.60
2019-02-26T12:17:37.982Z,8.97
2019-02-26T12:20:12.089Z,7.73
2019-02-26T12:22:45.148Z,9.37
2019-02-26T12:25:15.811Z,7.70
2019-02-26T12:27:48.089Z,10.07
2019-02-26T12:30:21.666Z,9.23
2019-02-26T12:32:53.035Z,9.73
2019-02-26T12:35:24.320Z,8.90
2019-02-26T12:37:56.627Z,12.57
2019-02-26T12:40:25.959Z,8.27
2019-02-26T12:42:56.166Z,9.17
2019-02-26T12:45:27.970Z,10.03
2019-02-26T12:47:59.432Z,11.03
2019-02-26T12:50:30.850Z,9.73
2019-02-26T12:53:00.047Z,10.70
2019-02-26T12:55:32.945Z,8.67
2019-02-26T12:58:02.804Z,7.00
2019-02-26T13:00:34.730Z,6.80
2019-02-26T13:03:05.675Z,7.77
2019-02-26T13:05:41.948Z,10.00
2019-02-26T13:08:12.776Z,7.50
2019-02-26T13:10:45.895Z,5.47
2019-02-26T13:13:25.617Z,8.67
2019-02-26T13:15:55.147Z,10.13
2019-02-26T13:18:26.006Z,9.27
2019-02-26T13:20:59.400Z,6.93
2019-02-26T13:23:29.389Z,11.40
2019-02-26T13:25:59.885Z,11.57
2019-02-26T13:28:29.952Z,21.63
2019-02-26T13:31:05.024Z,10.83
2019-02-26T13:33:41.055Z,12.67
2019-02-26T13:36:08.284Z,10.73
2019-02-26T13:41:28.903Z,6.27
2019-02-26T13:43:42.141Z,5.23
2019-02-26T13:46:14.228Z,10.70
2019-02-26T13:48:44.806Z,6.47
2019-02-26T13:51:17.921Z,7.50
2019-02-26T13:53:46.623Z,4.97
2019-02-26T13:56:15.668Z,4.67
2019-02-26T13:58:45.272Z,5.37
2019-02-26T14:01:15.042Z,12.37
2019-02-26T14:03:47.246Z,9.47
2019-02-26T14:06:17.296Z,7.63
2019-02-26T14:08:48.081Z,10.25
2019-02-26T14:11:19.955Z,16.70
2019-02-26T14:13:49.471Z,12.13
2019-02-26T14:16:19.487Z,8.57
2019-02-26T14:18:49.395Z,6.47
2019-02-26T14:21:20.632Z,4.63
2019-02-26T14:23:50.921Z,7.27
2019-02-26T14:26:20.386Z,7.63
2019-02-26T14:28:52.528Z,8.55
2019-02-26T14:31:23.238Z,6.10
2019-02-26T14:33:55.991Z,5.47
2019-02-26T14:36:25.799Z,13.47
2019-02-26T14:38:55.628Z,5.37
2019-02-26T14:41:25.911Z,9.03
2019-02-26T14:43:55.107Z,12.25
2019-02-26T14:46:25.297Z,9.55
2019-02-26T14:48:55.774Z,32.10
2019-02-26T14:51:28.139Z,14.47
2019-02-26T14:53:57.264Z,4.70
2019-02-26T14:56:27.531Z,6.20
2019-02-26T14:58:56.805Z,6.25
2019-02-26T15:01:26.463Z,5.40
2019-02-26T15:03:57.730Z,6.50
2019-02-26T15:06:28.118Z,5.77
2019-02-26T15:08:58.098Z,6.43
2019-02-26T15:11:27.278Z,7.53
2019-02-26T15:13:57.481Z,6.23
2019-02-26T15:16:27.576Z,12.20
2019-02-26T15:18:57.633Z,7.37
2019-02-26T15:21:39.096Z,9.53
2019-02-26T15:24:09.114Z,8.43
2019-02-26T15:26:38.123Z,10.37
2019-02-26T15:29:08.635Z,10.97
2019-02-26T15:31:39.587Z,8.00
2019-02-26T15:34:09.589Z,7.33
2019-02-26T15:36:39.088Z,9.53
2019-02-26T15:39:09.959Z,7.47
2019-02-26T15:41:41.164Z,6.50
2019-02-26T15:44:11.965Z,9.07
2019-02-26T15:46:42.111Z,9.50
2019-02-26T15:49:12.332Z,14.87
2019-02-26T15:51:43.816Z,8.40
2019-02-26T15:54:14.402Z,12.17
2019-02-26T15:56:45.381Z,7.57
2019-02-26T15:59:16.979Z,11.33
2019-02-26T16:01:47.191Z,8.43
2019-02-26T16:04:17.855Z,9.47
2019-02-26T16:06:47.784Z,22.07
2019-02-26T16:09:18.639Z,43.83
2019-02-26T16:11:52.200Z,32.63
2019-02-26T16:14:21.921Z,18.23
2019-02-26T16:16:51.067Z,11.70
2019-02-26T16:19:22.384Z,7.33
2019-02-26T16:21:51.941Z,5.83
2019-02-26T16:24:21.491Z,7.10
2019-02-26T16:26:50.717Z,5.43
2019-02-26T16:29:19.802Z,4.33
2019-02-26T16:31:51.762Z,6.60
2019-02-26T16:34:21.113Z,5.87
2019-02-26T16:36:52.224Z,5.07
2019-02-26T16:39:24.710Z,5.10
2019-02-26T16:41:54.503Z,4.50
2019-02-26T16:44:24.797Z,4.83
2019-02-26T16:46:54.978Z,4.70
2019-02-26T16:49:25.892Z,21.20
2019-02-26T16:51:57.793Z,20.73
2019-02-26T16:54:27.174Z,25.70
2019-02-26T16:56:59.752Z,8.83
2019-02-26T16:59:30.208Z,7.90
2019-02-26T17:01:59.527Z,6.93
2019-02-26T17:04:30.952Z,9.20
2019-02-26T17:07:00.945Z,10.20
2019-02-26T17:09:32.097Z,11.40
2019-02-26T17:12:02.328Z,16.67
2019-02-26T17:14:32.645Z,16.23
2019-02-26T17:17:03.933Z,12.63
2019-02-26T17:19:35.164Z,8.20
2019-02-26T17:22:05.222Z,8.47
2019-02-26T17:24:35.708Z,9.67
2019-02-26T17:27:05.717Z,22.70
2019-02-26T17:29:36.403Z,27.17
2019-02-26T17:32:05.890Z,21.43
2019-02-26T17:34:38.544Z,23.93
2019-02-26T17:37:09.507Z,21.43
2019-02-26T17:39:42.223Z,28.57
2019-02-26T17:42:11.842Z,11.03
2019-02-26T17:44:42.531Z,10.13
2019-02-26T17:47:12.987Z,15.87
2019-02-26T17:49:44.364Z,23.67
2019-02-26T17:52:13.868Z,14.97
2019-02-26T17:54:46.487Z,66.83
2019-02-26T17:57:17.272Z,18.73
2019-02-26T17:59:50.427Z,33.03
2019-02-26T18:02:22.928Z,23.43
2019-02-26T18:04:53.242Z,19.77
2019-02-26T18:07:23.380Z,25.90
2019-02-26T18:09:54.544Z,17.20
2019-02-26T18:12:24.670Z,13.30
2019-02-26T18:14:59.160Z,19.13
2019-02-26T18:17:28.947Z,15.97
2019-02-26T18:19:58.698Z,17.77
2019-02-26T18:22:28.820Z,14.83
2019-02-26T18:24:58.624Z,18.73
2019-02-26T18:27:30.495Z,15.47
2019-02-26T18:30:00.726Z,19.10
2019-02-26T18:32:30.674Z,17.43
2019-02-26T18:35:01.137Z,20.90
2019-02-26T18:37:30.374Z,21.70
2019-02-26T18:40:00.852Z,21.90
2019-02-26T18:42:30.470Z,14.67
2019-02-26T18:45:01.366Z,14.00
2019-02-26T18:47:31.727Z,14.63
2019-02-26T18:50:01.391Z,16.40
2019-02-26T18:52:32.770Z,15.83
2019-02-26T18:55:03.049Z,18.33
2019-02-26T18:57:34.757Z,18.63
2019-02-26T19:00:06.859Z,13.87
2019-02-26T19:02:38.037Z,18.67
2019-02-26T19:05:10.386Z,15.00
2019-02-26T19:07:41.903Z,16.03
2019-02-26T19:10:17.768Z,19.90
2019-02-26T19:12:46.290Z,18.70
2019-02-26T19:15:18.190Z,16.83
2019-02-26T19:17:51.362Z,12.53
2019-02-26T19:20:25.698Z,18.57
2019-02-26T19:22:58.517Z,31.80
2019-02-26T19:25:27.921Z,52.70
2019-02-26T19:27:58.726Z,35.63
2019-02-26T19:30:29.263Z,26.70
2019-02-26T19:32:58.635Z,24.30
2019-02-26T19:35:34.496Z,42.23
2019-02-26T19:38:00.769Z,24.77
2019-02-26T19:40:38.705Z,22.57
2019-02-26T19:43:10.459Z,18.33
2019-02-26T19:45:44.818Z,14.60
2019-02-26T19:48:15.253Z,9.23
2019-02-26T19:50:48.910Z,10.50
2019-02-26T19:53:19.709Z,8.97
2019-02-26T19:55:50.040Z,10.20
2019-02-26T19:58:20.121Z,13.80
2019-02-26T20:00:52.756Z,9.47
2019-02-26T20:03:22.047Z,9.23
2019-02-26T20:05:52.190Z,18.97
2019-02-26T20:08:23.292Z,14.77
2019-02-26T20:10:57.739Z,12.50
2019-02-26T20:13:31.756Z,10.00
2019-02-26T20:16:03.138Z,13.27
2019-02-26T20:18:35.860Z,11.40
2019-02-26T20:21:07.222Z,26.50
2019-02-26T20:23:41.852Z,19.27
2019-02-26T20:26:16.166Z,19.53
2019-02-26T20:28:44.977Z,22.20
2019-02-26T20:31:15.821Z,18.73
2019-02-26T20:33:44.785Z,16.17
2019-02-26T20:36:18.370Z,20.77
2019-02-26T20:38:48.517Z,19.73
2019-02-26T20:41:21.850Z,17.30
2019-02-26T20:43:52.101Z,17.77
2019-02-26T20:46:28.606Z,28.90
2019-02-26T20:48:57.499Z,15.77
2019-02-26T20:51:28.918Z,20.37
2019-02-26T20:54:03.822Z,20.93
2019-02-26T20:56:36.716Z,21.53
2019-02-26T20:59:07.440Z,7.40
2019-02-26T21:01:50.643Z,9.03
2019-02-26T21:04:21.051Z,23.67
2019-02-26T21:06:51.704Z,10.53
2019-02-26T21:09:25.147Z,10.80
2019-02-26T21:11:58.881Z,13.23
2019-02-26T21:14:29.770Z,9.00
2019-02-26T21:17:00.179Z,11.33
2019-02-26T21:19:35.566Z,12.63
2019-02-26T21:22:04.822Z,10.20
2019-02-26T21:24:35.209Z,13.27
2019-02-26T21:27:10.323Z,12.60
2019-02-26T21:29:41.630Z,15.13
2019-02-26T21:32:11.919Z,11.60
2019-02-26T21:34:42.898Z,14.43
2019-02-26T21:37:14.221Z,12.53
2019-02-26T21:39:44.249Z,14.37
2019-02-26T21:42:14.075Z,16.10
2019-02-26T21:44:43.193Z,12.97
2019-02-26T21:47:13.601Z,10.67
2019-02-26T21:49:48.781Z,13.30
2019-02-26T21:52:19.742Z,15.07
2019-02-26T21:54:49.751Z,12.17
2019-02-26T21:57:22.181Z,11.03
2019-02-26T21:59:52.297Z,14.60
2019-02-26T22:02:34.196Z,11.50
2019-02-26T22:05:05.291Z,27.10
2019-02-26T22:07:36.094Z,19.83
2019-02-26T22:10:17.684Z,22.90
2019-02-26T22:12:51.189Z,10.77
2019-02-26T22:15:22.274Z,19.30
2019-02-26T22:17:55.731Z,10.40
2019-02-26T22:20:35.871Z,11.17
2019-02-26T22:23:00.396Z,14.40
2019-02-26T22:25:30.563Z,12.00
2019-02-26T22:28:00.757Z,13.40
2019-02-26T22:30:33.948Z,17.10
2019-02-26T22:33:17.394Z,17.47
2019-02-26T22:35:47.564Z,19.73
2019-02-26T22:38:18.653Z,16.50
2019-02-26T22:40:49.725Z,21.90
2019-02-26T22:43:20.990Z,15.47
2019-02-26T22:46:00.788Z,18.13
2019-02-26T22:48:33.511Z,12.73
2019-02-26T22:51:03.126Z,11.00
2019-02-26T22:53:36.387Z,14.87
2019-02-26T22:56:05.670Z,11.33
2019-02-26T22:58:35.855Z,12.43
2019-02-26T23:01:16.788Z,12.07
2019-02-26T23:04:01.087Z,12.20
2019-02-26T23:06:32.448Z,11.03
2019-02-26T23:09:04.776Z,12.17
2019-02-26T23:11:35.728Z,14.03
2019-02-26T23:14:05.548Z,13.83
2019-02-26T23:16:39.270Z,16.40
2019-02-26T23:19:10.948Z,18.23
2019-02-26T23:21:42.687Z,14.27
2019-02-26T23:24:14.300Z,13.97
2019-02-26T23:26:46.032Z,11.73
2019-02-26T23:29:16.500Z,13.90
2019-02-26T23:31:47.353Z,13.77
2019-02-26T23:34:21.891Z,11.43
2019-02-26T23:36:49.928Z,12.00
2019-02-26T23:39:20.397Z,16.60
2019-02-26T23:41:52.286Z,16.70
2019-02-26T23:44:22.549Z,17.23
2019-02-26T23:46:51.606Z,18.37
2019-02-26T23:49:21.368Z,24.87
2019-02-26T23:51:54.626Z,16.70
2019-02-26T23:54:25.729Z,14.43
2019-02-26T23:56:54.792Z,11.50
2019-02-26T23:59:23.586Z,13.80
